F/V Husky — WDD6388 — position and weather

sailwx.info

Track history (hours):
 
Tides and Currents Weather Stations Pressure Air Temp Water Temp Dewpoint Dewpoint Depression Visibility Wind Speed Wind Dir Waves Ship Positions

F/V Husky

Owner: F/V Husky LLC, Shoreline, WA. More information available from US FCC via Universal Licensing System and Coast Guard Vessel Documentation Center.

Last reported at 2018-Apr-14 23:57 UTC. Time now 2018-May-21 00:59 UTC.
Position N 58°18' W 136°14'.
Warning: this ship's position is 36 days out of date.

Length 25 m; draft 2.6 m.

Type: Fishing. MMSI: 367172260.

Date/timePositionNaut miles runAvg speedWind from/ knotsBaromVisibWave heightAir tempDewpointWater temp
2018-Apr-14 23:57N 58°18' W 136°14'511.4
2018-Apr-14 23:30N 58°20' W 136°05'611.4
2018-Apr-14 23:00N 58°19' W 135°54'510.1
2018-Apr-14 22:30N 58°18' W 135°44'5 9.1
2018-Apr-14 21:58N 58°15' W 135°36'272 7.4
2018-Apr-13 09:27N 54°37' W 130°44'5 8.9
2018-Apr-13 08:54N 54°32' W 130°43'4 9.2
2018-Apr-13 08:29N 54°28' W 130°41'5 9.4
2018-Apr-13 08:00N 54°24' W 130°38'510.2
2018-Apr-13 07:30N 54°19' W 130°35'510.1
2018-Apr-13 07:00N 54°15' W 130°32'5 9.6
2018-Apr-13 06:30N 54°11' W 130°27'5 9.8
2018-Apr-13 06:00N 54°07' W 130°22'5 9.6
2018-Apr-13 05:30N 54°04' W 130°16'510.3
2018-Apr-13 05:00N 53°59' W 130°12'5 9.3
2018-Apr-13 04:30N 53°55' W 130°09'5 9.8
2018-Apr-13 04:00N 53°51' W 130°03'610.1
2018-Apr-13 03:27N 53°47' W 129°56'97 8.3
2018-Apr-12 15:42N 52°25' W 128°29'2 9.7
2018-Apr-12 15:28N 52°23' W 128°30'17 8.1
2018-Apr-12 13:24N 52°13' W 128°09'3 7.3
2018-Apr-12 13:00N 52°10' W 128°08'5 9.2
2018-Apr-12 12:30N 52°06' W 128°07'5 8.9
2018-Apr-12 12:00N 52°05' W 128°00'4 7.7
2018-Apr-12 11:30N 52°02' W 127°56'4 9.0
2018-Apr-12 11:00N 51°57' W 127°56'4 8.9
2018-Apr-12 10:30N 51°53' W 127°56'5 9.4
2018-Apr-12 10:00N 51°48' W 127°56'5 9.3
2018-Apr-12 09:30N 51°44' W 127°55'5 9.4
2018-Apr-12 09:00N 51°39' W 127°54'5 9.4
2018-Apr-12 08:30N 51°34' W 127°52'5 9.4
2018-Apr-12 08:00N 51°30' W 127°51'5 9.3
2018-Apr-12 07:30N 51°25' W 127°51'6 9.7
2018-Apr-12 06:55N 51°19' W 127°52'4 9.3
2018-Apr-12 06:28N 51°15' W 127°52'5 9.1
2018-Apr-12 05:55N 51°10' W 127°50'3 8.6
2018-Apr-12 05:30N 51°07' W 127°48'5 9.6
2018-Apr-12 04:59N 51°04' W 127°41'4 9.1
2018-Apr-12 04:30N 51°01' W 127°36'5 8.9
2018-Apr-12 03:59N 50°58' W 127°31'4 8.6
2018-Apr-12 03:30N 50°55' W 127°26'4 8.6
2018-Apr-12 03:00N 50°53' W 127°20'5 9.1
2018-Apr-12 02:30N 50°51' W 127°14'5 9.4
2018-Apr-12 02:00N 50°48' W 127°07'5 9.5
2018-Apr-12 01:29N 50°45' W 127°01'5 9.3
2018-Apr-12 00:59N 50°42' W 126°56'62 8.9
2018-Apr-11 18:02N 50°19' W 125°25'0 9.1
2018-Apr-11 18:00N 50°19' W 125°25'5 9.4
2018-Apr-11 17:30N 50°15' W 125°23'5 9.7
2018-Apr-11 17:00N 50°10' W 125°21'5 8.9
2018-Apr-11 16:30N 50°06' W 125°17'611.3
2018-Apr-11 16:00N 50°01' W 125°13'510.4
2018-Apr-11 15:30N 49°57' W 125°08'5 9.5
2018-Apr-11 15:00N 49°54' W 125°03'5 9.0
2018-Apr-11 14:30N 49°51' W 124°57'5 9.5
2018-Apr-11 14:00N 49°48' W 124°52'5 9.3
2018-Apr-11 13:29N 49°45' W 124°46'5 9.5
2018-Apr-11 13:00N 49°43' W 124°40'6 9.4
2018-Apr-11 12:20N 49°39' W 124°32'35 9.3
2018-Apr-11 08:36N 49°18' W 123°49'1 8.7
2018-Apr-11 08:26N 49°17' W 123°47'5 8.8
2018-Apr-11 07:51N 49°14' W 123°41'3 8.9
2018-Apr-11 07:29N 49°12' W 123°37'5 9.7
2018-Apr-11 06:58N 49°09' W 123°31'5 9.7
2018-Apr-11 06:30N 49°07' W 123°26'5 9.5
2018-Apr-11 06:00N 49°04' W 123°20'5 9.3
2018-Apr-11 05:30N 49°01' W 123°15'5 9.4
2018-Apr-11 04:59N 48°57' W 123°09'65 7.5
2018-Apr-10 20:23N 47°58' W 122°32'3 8.9
2018-Apr-10 20:00N 47°56' W 122°28'5 9.5
2018-Apr-10 19:30N 47°51' W 122°26'4 9.0
2018-Apr-10 19:00N 47°47' W 122°25'4 7.8
2018-Apr-10 18:30N 47°43' W 122°25'3 5.8
2018-Apr-10 18:00N 47°40' W 122°24'1 1.9
2018-Apr-10 17:30N 47°40' W 122°23'0 0.1
2018-Apr-10 17:00N 47°40' W 122°23'0 0.0
2018-Apr-10 16:30N 47°40' W 122°23'0 0.0
2018-Apr-10 15:59N 47°40' W 122°23'0 0.0
2018-Apr-10 15:30N 47°40' W 122°23'0 0.0
2018-Apr-10 15:00N 47°40' W 122°23'0 0.0
2018-Apr-10 14:30N 47°40' W 122°23'0 0.0
2018-Apr-10 14:00N 47°40' W 122°23'0 0.0
2018-Apr-10 13:30N 47°40' W 122°23'0 0.0
2018-Apr-10 13:00N 47°40' W 122°23'0 0.0
2018-Apr-10 12:30N 47°40' W 122°23'0 0.0
2018-Apr-10 12:00N 47°40' W 122°23'0 0.0
2018-Apr-10 11:30N 47°40' W 122°23'0 0.0
2018-Apr-10 11:00N 47°40' W 122°23'0 0.0
2018-Apr-10 10:30N 47°40' W 122°23'0 0.0
2018-Apr-10 10:00N 47°40' W 122°23'0 0.0
2018-Apr-10 09:30N 47°40' W 122°23'0 0.0
2018-Apr-10 09:00N 47°40' W 122°23'0 0.0
2018-Apr-10 08:30N 47°40' W 122°23'0 0.0
2018-Apr-10 08:00N 47°40' W 122°23'0 0.0
2018-Apr-10 07:29N 47°40' W 122°23'0 0.0
2018-Apr-10 07:00N 47°40' W 122°23'0 0.0
2018-Apr-10 06:30N 47°40' W 122°23'0 0.0
2018-Apr-10 06:00N 47°40' W 122°23'0 0.0
2018-Apr-10 05:30N 47°40' W 122°23'0 0.0
2018-Apr-10 05:00N 47°40' W 122°23'0 0.0
2018-Apr-10 04:30N 47°40' W 122°23'0 0.0
2018-Apr-10 04:00N 47°40' W 122°23'0 0.0
2018-Apr-10 03:30N 47°40' W 122°23'0 0.0
2018-Apr-10 03:00N 47°40' W 122°23'0 0.0
2018-Apr-10 02:30N 47°40' W 122°23'0 0.0
2018-Apr-10 02:00N 47°40' W 122°23'0 0.0
2018-Apr-10 01:30N 47°40' W 122°23'0 0.0
2018-Apr-10 01:00N 47°40' W 122°23'0 0.0
2018-Apr-10 00:30N 47°40' W 122°23'0 0.0
2018-Apr-10 00:00N 47°40' W 122°23'0 0.0
2018-Apr-09 23:30N 47°40' W 122°23'0 0.0
2018-Apr-09 23:00N 47°40' W 122°23'0 0.0
2018-Apr-09 22:30N 47°40' W 122°23'0 0.0
2018-Apr-09 22:00N 47°40' W 122°23'0 0.0
2018-Apr-09 21:30N 47°40' W 122°23'0 0.0
2018-Apr-09 20:59N 47°40' W 122°23'0 0.0
2018-Apr-09 20:30N 47°40' W 122°23'0 0.0
2018-Apr-09 20:00N 47°40' W 122°23'0 0.0
2018-Apr-09 19:30N 47°40' W 122°23'0 0.0
2018-Apr-09 19:00N 47°40' W 122°23'0 0.0
2018-Apr-09 18:30N 47°40' W 122°23'1 1.3
2018-Apr-09 18:00N 47°40' W 122°23'0 0.0
2018-Apr-09 17:30N 47°40' W 122°23'0 0.0
2018-Apr-09 17:00N 47°40' W 122°23'0 0.0
2018-Apr-09 16:30N 47°40' W 122°23'0 0.0
2018-Apr-09 16:00N 47°40' W 122°23'1 1.2
2018-Apr-09 15:30N 47°40' W 122°23'0 0.1
2018-Apr-09 15:00N 47°40' W 122°23'0 0.0
2018-Apr-09 14:30N 47°40' W 122°23'0 0.0
2018-Apr-09 13:59N 47°40' W 122°23'0 0.0
2018-Apr-09 13:30N 47°40' W 122°23'0 0.0
2018-Apr-09 13:00N 47°40' W 122°23'0 0.0
2018-Apr-09 12:30N 47°40' W 122°23'0 0.0
2018-Apr-09 12:00N 47°40' W 122°23'0 0.0
2018-Apr-09 11:30N 47°40' W 122°23'0 0.0
2018-Apr-09 11:00N 47°40' W 122°23'0 0.0
2018-Apr-09 10:30N 47°40' W 122°23'0 0.0
2018-Apr-09 10:00N 47°40' W 122°23'0 0.0
2018-Apr-09 09:30N 47°40' W 122°23'0 0.0
2018-Apr-09 09:00N 47°40' W 122°23'0 0.0
2018-Apr-09 08:30N 47°40' W 122°23'0 0.0
2018-Apr-09 08:00N 47°40' W 122°23'0 0.0
2018-Apr-09 07:30N 47°40' W 122°23'0 0.0
2018-Apr-09 06:59N 47°40' W 122°23'0 0.0
2018-Apr-09 06:30N 47°40' W 122°23'0 0.0
2018-Apr-09 06:00N 47°40' W 122°23'0 0.0
2018-Apr-09 05:30N 47°40' W 122°23'0 0.0
2018-Apr-09 05:00N 47°40' W 122°23'0 0.0
2018-Apr-09 04:30N 47°40' W 122°23'0 0.0
2018-Apr-09 04:00N 47°40' W 122°23'0 0.0
2018-Apr-09 03:30N 47°40' W 122°23'0 0.0
2018-Apr-09 03:00N 47°40' W 122°23'0 0.0
2018-Apr-09 02:30N 47°40' W 122°23'0 0.0
2018-Apr-09 02:00N 47°40' W 122°23'0 0.0
2018-Apr-09 01:30N 47°40' W 122°23'0 0.0
2018-Apr-09 01:00N 47°40' W 122°23'0 0.0
2018-Apr-09 00:30N 47°40' W 122°23'0 0.0
2018-Apr-09 00:00N 47°40' W 122°23'0 0.0
2018-Apr-08 23:30N 47°40' W 122°23'0 0.0
2018-Apr-08 23:00N 47°40' W 122°23'0 0.0
2018-Apr-08 22:30N 47°40' W 122°23'0 0.0
2018-Apr-08 22:00N 47°40' W 122°23'0 0.0
2018-Apr-08 21:30N 47°40' W 122°23'0 0.0
2018-Apr-08 21:00N 47°40' W 122°23'0 0.0
2018-Apr-08 20:30N 47°40' W 122°23'0 0.0
2018-Apr-08 20:00N 47°40' W 122°23'0 0.0
2018-Apr-08 19:30N 47°40' W 122°23'0 0.0
2018-Apr-08 19:00N 47°40' W 122°23'0 0.0
2018-Apr-08 18:30N 47°40' W 122°23'0 0.0
2018-Apr-08 18:00N 47°40' W 122°23'0 0.0
2018-Apr-08 17:30N 47°40' W 122°23'0 0.0
2018-Apr-08 17:00N 47°40' W 122°23'0 0.0
2018-Apr-08 16:30N 47°40' W 122°23'0 0.0
2018-Apr-08 16:00N 47°40' W 122°23'0 0.0
2018-Apr-08 15:30N 47°40' W 122°23'0 0.0
2018-Apr-08 15:00N 47°40' W 122°23'0 0.0
2018-Apr-08 14:30N 47°40' W 122°23'0 0.0
2018-Apr-08 14:00N 47°40' W 122°23'0 0.0
2018-Apr-08 13:30N 47°40' W 122°23'0 0.0
2018-Apr-08 13:00N 47°40' W 122°23'0 0.0
2018-Apr-08 12:30N 47°40' W 122°23'0 0.0
2018-Apr-08 12:00N 47°40' W 122°23'0 0.0
2018-Apr-08 11:30N 47°40' W 122°23'0 0.0
2018-Apr-08 11:00N 47°40' W 122°23'0 0.0
2018-Apr-08 10:30N 47°40' W 122°23'0 0.0
2018-Apr-08 10:00N 47°40' W 122°23'0 0.0
2018-Apr-08 09:30N 47°40' W 122°23'0 0.0
2018-Apr-08 09:00N 47°40' W 122°23'0 0.0
2018-Apr-08 08:30N 47°40' W 122°23'0 0.0
2018-Apr-08 07:59N 47°40' W 122°23'0 0.0
2018-Apr-08 07:30N 47°40' W 122°23'0 0.0
2018-Apr-08 06:56N 47°40' W 122°23'0 0.0
2018-Apr-08 06:30N 47°40' W 122°23'0 0.0
2018-Apr-08 06:00N 47°40' W 122°23'0 0.0
2018-Apr-08 05:30N 47°40' W 122°23'0 0.0
2018-Apr-08 05:00N 47°40' W 122°23'0 0.0
2018-Apr-08 04:30N 47°40' W 122°23'0 0.0
2018-Apr-08 04:00N 47°40' W 122°23'0 0.0
2018-Apr-08 03:30N 47°40' W 122°23'0 0.0
2018-Apr-08 03:00N 47°40' W 122°23'0 0.0
2018-Apr-08 02:30N 47°40' W 122°23'0 0.0
2018-Apr-08 02:00N 47°40' W 122°23'0 0.0
2018-Apr-08 01:30N 47°40' W 122°23'0 0.0
2018-Apr-08 01:00N 47°40' W 122°23'0 0.0
2018-Apr-08 00:30N 47°40' W 122°23'0 0.0
2018-Apr-08 00:00N 47°40' W 122°23'0 0.0
2018-Apr-07 23:30N 47°40' W 122°23'0 0.0
2018-Apr-07 23:00N 47°40' W 122°23'0 0.0
2018-Apr-07 22:30N 47°40' W 122°23'0 0.0
2018-Apr-07 22:00N 47°40' W 122°23'0 0.0
2018-Apr-07 21:30N 47°40' W 122°23'0 0.0
2018-Apr-07 21:00N 47°40' W 122°23'0 0.0
2018-Apr-07 20:30N 47°40' W 122°23'0 0.0
2018-Apr-07 20:00N 47°40' W 122°23'0 0.0
2018-Apr-07 19:30N 47°40' W 122°23'0 0.0
2018-Apr-07 19:00N 47°40' W 122°23'0 0.0
2018-Apr-07 18:30N 47°40' W 122°23'0 0.0
2018-Apr-07 18:00N 47°40' W 122°23'0 0.0
2018-Apr-07 17:30N 47°40' W 122°23'0 0.0
2018-Apr-07 17:00N 47°40' W 122°23'0 0.0
2018-Apr-07 16:30N 47°40' W 122°23'0 0.0
2018-Apr-07 15:59N 47°40' W 122°23'0 0.0
2018-Apr-07 15:30N 47°40' W 122°23'0 0.0
2018-Apr-07 15:00N 47°40' W 122°23'0 0.0
2018-Apr-07 14:30N 47°40' W 122°23'0 0.0
2018-Apr-07 14:00N 47°40' W 122°23'0 0.0
2018-Apr-07 13:30N 47°40' W 122°23'0 0.0
2018-Apr-07 13:00N 47°40' W 122°23'0 0.0
2018-Apr-07 12:30N 47°40' W 122°23'0 0.0
2018-Apr-07 12:00N 47°40' W 122°23'0 0.0
2018-Apr-07 11:30N 47°40' W 122°23'0 0.0
2018-Apr-07 11:00N 47°40' W 122°23'0 0.0
2018-Apr-07 10:30N 47°40' W 122°23'0 0.0
2018-Apr-07 10:00N 47°40' W 122°23'0 0.0
2018-Apr-07 09:30N 47°40' W 122°23'0 0.0
2018-Apr-07 09:00N 47°40' W 122°23'0 0.0
2018-Apr-07 08:30N 47°40' W 122°23'0 0.0
2018-Apr-07 08:00N 47°40' W 122°23'0 0.0
2018-Apr-07 07:30N 47°40' W 122°23'0 0.0
2018-Apr-07 07:00N 47°40' W 122°23'0 0.0
2018-Apr-07 06:30N 47°40' W 122°23'0 0.0
2018-Apr-07 06:00N 47°40' W 122°23'0 0.0
2018-Apr-07 05:30N 47°40' W 122°23'0 0.0
2018-Apr-07 05:00N 47°40' W 122°23'0 0.0
2018-Apr-07 04:30N 47°40' W 122°23'0 0.0
2018-Apr-07 04:00N 47°40' W 122°23'0 0.0
2018-Apr-07 03:30N 47°40' W 122°23'0 0.0
2018-Apr-07 03:00N 47°40' W 122°23'0 0.0
2018-Apr-07 02:30N 47°40' W 122°23'0 0.0
2018-Apr-07 02:00N 47°40' W 122°23'0 0.0
2018-Apr-07 01:30N 47°40' W 122°23'0 0.0
2018-Apr-07 01:00N 47°40' W 122°23'0 0.0
2018-Apr-07 00:30N 47°40' W 122°23'0 0.0
2018-Apr-07 00:00N 47°40' W 122°23'0 0.0
2018-Apr-06 23:30N 47°40' W 122°23'0 0.0
2018-Apr-06 23:00N 47°40' W 122°23'0 0.0
2018-Apr-06 22:30N 47°40' W 122°23'0 0.0
2018-Apr-06 22:00N 47°40' W 122°23'0 0.0
2018-Apr-06 21:30N 47°40' W 122°23'0 0.0
2018-Apr-06 21:00N 47°40' W 122°23'0 0.0
2018-Apr-06 20:30N 47°40' W 122°23'0 0.0
2018-Apr-06 20:00N 47°40' W 122°23'0 0.0
2018-Apr-06 19:30N 47°40' W 122°23'0 0.0
2018-Apr-06 19:00N 47°40' W 122°23'0 0.0
2018-Apr-06 18:30N 47°40' W 122°23'0 0.0
2018-Apr-06 18:00N 47°40' W 122°23'0 0.0
2018-Apr-06 17:30N 47°40' W 122°23'0 0.1
2018-Apr-06 17:00N 47°40' W 122°23'0 0.5
2018-Apr-06 16:30N 47°40' W 122°22'0 0.6
2018-Apr-06 16:00N 47°39' W 122°22'0 0.0
2018-Apr-06 15:30N 47°39' W 122°22'0 0.0
2018-Apr-06 15:00N 47°39' W 122°22'0 0.0
2018-Apr-06 14:30N 47°39' W 122°22'0 0.0
2018-Apr-06 14:00N 47°39' W 122°22'0 0.0
2018-Apr-06 13:30N 47°39' W 122°22'0 0.0
2018-Apr-06 13:00N 47°39' W 122°22'0 0.0
2018-Apr-06 12:30N 47°39' W 122°22'0 0.0
2018-Apr-06 12:00N 47°39' W 122°22'0 0.0
2018-Apr-06 11:30N 47°39' W 122°22'0 0.0
2018-Apr-06 11:00N 47°39' W 122°22'0 0.0
2018-Apr-06 10:30N 47°39' W 122°22'0 0.0
2018-Apr-06 10:00N 47°39' W 122°22'0 0.0
2018-Apr-06 09:30N 47°39' W 122°22'0 0.0
2018-Apr-06 09:00N 47°39' W 122°22'0 0.0
2018-Apr-06 08:30N 47°39' W 122°22'0 0.0
2018-Apr-06 08:00N 47°39' W 122°22'0 0.0
2018-Apr-06 07:30N 47°39' W 122°22'0 0.0
2018-Apr-06 07:00N 47°39' W 122°22'0 0.0
2018-Apr-06 06:30N 47°39' W 122°22'0 0.0
2018-Apr-06 06:00N 47°39' W 122°22'0 0.0
2018-Apr-06 05:30N 47°39' W 122°22'0 0.0
2018-Apr-06 05:00N 47°39' W 122°22'0 0.0
2018-Apr-06 04:30N 47°39' W 122°22'0 0.0
2018-Apr-06 04:00N 47°39' W 122°22'0 0.0
2018-Apr-06 03:30N 47°39' W 122°22'0 0.0
2018-Apr-06 03:00N 47°39' W 122°22'0 0.0
2018-Apr-06 02:30N 47°39' W 122°22'0 0.0
2018-Apr-06 02:00N 47°39' W 122°22'0 0.0
2018-Apr-06 01:30N 47°39' W 122°22'0 0.0
2018-Apr-06 01:00N 47°39' W 122°22'0 0.0
2018-Apr-06 00:30N 47°39' W 122°22'0 0.0
2018-Apr-06 00:00N 47°39' W 122°22'0 0.0
2018-Apr-05 23:30N 47°39' W 122°22'0 0.0
2018-Apr-05 23:00N 47°39' W 122°22'0 0.0
2018-Apr-05 22:30N 47°39' W 122°22'0 0.0
2018-Apr-05 22:00N 47°39' W 122°22'0 0.0
2018-Apr-05 21:30N 47°39' W 122°22'0 0.0
2018-Apr-05 21:00N 47°39' W 122°22'0 0.0
2018-Apr-05 20:30N 47°39' W 122°22'0 0.0
2018-Apr-05 20:00N 47°39' W 122°22'0 0.0
2018-Apr-05 19:30N 47°39' W 122°22'0 0.0
2018-Apr-05 19:00N 47°39' W 122°22'0 0.0
2018-Apr-05 18:30N 47°39' W 122°22'0 0.0
2018-Apr-05 18:00N 47°39' W 122°22'0 0.0
2018-Apr-05 17:30N 47°39' W 122°22'0 0.0
2018-Apr-05 17:00N 47°39' W 122°22'0 0.0
2018-Apr-05 16:30N 47°39' W 122°22'0 0.0
2018-Apr-05 16:00N 47°39' W 122°22'0 0.0
2018-Apr-05 15:30N 47°39' W 122°22'0 0.0
2018-Apr-05 15:00N 47°39' W 122°22'0 0.0
2018-Apr-05 14:30N 47°39' W 122°22'0 0.0
2018-Apr-05 14:00N 47°39' W 122°22'0 0.0
2018-Apr-05 13:30N 47°39' W 122°22'0 0.0
2018-Apr-05 13:00N 47°39' W 122°22'0 0.0
2018-Apr-05 12:30N 47°39' W 122°22'0 0.0
2018-Apr-05 12:00N 47°39' W 122°22'0 0.0
2018-Apr-05 11:30N 47°39' W 122°22'0 0.0
2018-Apr-05 11:00N 47°39' W 122°22'0 0.0
2018-Apr-05 10:30N 47°39' W 122°22'0 0.0
2018-Apr-05 10:00N 47°39' W 122°22'0 0.0
2018-Apr-05 09:30N 47°39' W 122°22'0 0.0
2018-Apr-05 09:00N 47°39' W 122°22'0 0.0
2018-Apr-05 08:30N 47°39' W 122°22'0 0.0
2018-Apr-05 08:00N 47°39' W 122°22'0 0.0
2018-Apr-05 07:29N 47°39' W 122°22'0 0.0
2018-Apr-05 07:00N 47°39' W 122°22'0 0.0
2018-Apr-05 06:30N 47°39' W 122°22'0 0.0
2018-Apr-05 06:00N 47°39' W 122°22'0 0.0
2018-Apr-05 05:30N 47°39' W 122°22'0 0.0
2018-Apr-05 05:00N 47°39' W 122°22'0 0.0
2018-Apr-05 04:30N 47°39' W 122°22'0 0.0
2018-Apr-05 04:00N 47°39' W 122°22'0 0.0
2018-Apr-05 03:30N 47°39' W 122°22'0 0.0
2018-Apr-05 03:00N 47°39' W 122°22'0 0.0
2018-Apr-05 02:30N 47°39' W 122°22'0 0.0
2018-Apr-05 02:00N 47°39' W 122°22'0 0.0
2018-Apr-05 01:30N 47°39' W 122°22'0 0.0
2018-Apr-05 01:00N 47°39' W 122°22'0 0.0
2018-Apr-05 00:29N 47°39' W 122°22'0 0.0
2018-Apr-05 00:00N 47°39' W 122°22'  
Track history (hours):
 
Tides and Currents Weather Stations Pressure Air Temp Water Temp Dewpoint Dewpoint Depression Visibility Wind Speed Wind Dir Waves Ship Positions

F/V Husky

Owner: F/V Husky LLC, Shoreline, WA. More information available from US FCC via Universal Licensing System and Coast Guard Vessel Documentation Center.

Last reported at 2018-Apr-14 23:57 UTC. Time now 2018-May-21 00:59 UTC.
Position N 58°18' W 136°14'.
Warning: this ship's position is 36 days out of date.

Length 25 m; draft 2.6 m.

Type: Fishing. MMSI: 367172260.

Date/timePositionNaut miles runAvg speedWind from/ knotsBaromVisibWave heightAir tempDewpointWater temp
2018-Apr-14 23:57N 58°18' W 136°14'511.4
2018-Apr-14 23:30N 58°20' W 136°05'611.4
2018-Apr-14 23:00N 58°19' W 135°54'510.1
2018-Apr-14 22:30N 58°18' W 135°44'5 9.1
2018-Apr-14 21:58N 58°15' W 135°36'272 7.4
2018-Apr-13 09:27N 54°37' W 130°44'5 8.9
2018-Apr-13 08:54N 54°32' W 130°43'4 9.2
2018-Apr-13 08:29N 54°28' W 130°41'5 9.4
2018-Apr-13 08:00N 54°24' W 130°38'510.2
2018-Apr-13 07:30N 54°19' W 130°35'510.1
2018-Apr-13 07:00N 54°15' W 130°32'5 9.6
2018-Apr-13 06:30N 54°11' W 130°27'5 9.8
2018-Apr-13 06:00N 54°07' W 130°22'5 9.6
2018-Apr-13 05:30N 54°04' W 130°16'510.3
2018-Apr-13 05:00N 53°59' W 130°12'5 9.3
2018-Apr-13 04:30N 53°55' W 130°09'5 9.8
2018-Apr-13 04:00N 53°51' W 130°03'610.1
2018-Apr-13 03:27N 53°47' W 129°56'97 8.3
2018-Apr-12 15:42N 52°25' W 128°29'2 9.7
2018-Apr-12 15:28N 52°23' W 128°30'17 8.1
2018-Apr-12 13:24N 52°13' W 128°09'3 7.3
2018-Apr-12 13:00N 52°10' W 128°08'5 9.2
2018-Apr-12 12:30N 52°06' W 128°07'5 8.9
2018-Apr-12 12:00N 52°05' W 128°00'4 7.7
2018-Apr-12 11:30N 52°02' W 127°56'4 9.0
2018-Apr-12 11:00N 51°57' W 127°56'4 8.9
2018-Apr-12 10:30N 51°53' W 127°56'5 9.4
2018-Apr-12 10:00N 51°48' W 127°56'5 9.3
2018-Apr-12 09:30N 51°44' W 127°55'5 9.4
2018-Apr-12 09:00N 51°39' W 127°54'5 9.4
2018-Apr-12 08:30N 51°34' W 127°52'5 9.4
2018-Apr-12 08:00N 51°30' W 127°51'5 9.3
2018-Apr-12 07:30N 51°25' W 127°51'6 9.7
2018-Apr-12 06:55N 51°19' W 127°52'4 9.3
2018-Apr-12 06:28N 51°15' W 127°52'5 9.1
2018-Apr-12 05:55N 51°10' W 127°50'3 8.6
2018-Apr-12 05:30N 51°07' W 127°48'5 9.6
2018-Apr-12 04:59N 51°04' W 127°41'4 9.1
2018-Apr-12 04:30N 51°01' W 127°36'5 8.9
2018-Apr-12 03:59N 50°58' W 127°31'4 8.6
2018-Apr-12 03:30N 50°55' W 127°26'4 8.6
2018-Apr-12 03:00N 50°53' W 127°20'5 9.1
2018-Apr-12 02:30N 50°51' W 127°14'5 9.4
2018-Apr-12 02:00N 50°48' W 127°07'5 9.5
2018-Apr-12 01:29N 50°45' W 127°01'5 9.3
2018-Apr-12 00:59N 50°42' W 126°56'62 8.9
2018-Apr-11 18:02N 50°19' W 125°25'0 9.1
2018-Apr-11 18:00N 50°19' W 125°25'5 9.4
2018-Apr-11 17:30N 50°15' W 125°23'5 9.7
2018-Apr-11 17:00N 50°10' W 125°21'5 8.9
2018-Apr-11 16:30N 50°06' W 125°17'611.3
2018-Apr-11 16:00N 50°01' W 125°13'510.4
2018-Apr-11 15:30N 49°57' W 125°08'5 9.5
2018-Apr-11 15:00N 49°54' W 125°03'5 9.0
2018-Apr-11 14:30N 49°51' W 124°57'5 9.5
2018-Apr-11 14:00N 49°48' W 124°52'5 9.3
2018-Apr-11 13:29N 49°45' W 124°46'5 9.5
2018-Apr-11 13:00N 49°43' W 124°40'6 9.4
2018-Apr-11 12:20N 49°39' W 124°32'35 9.3
2018-Apr-11 08:36N 49°18' W 123°49'1 8.7
2018-Apr-11 08:26N 49°17' W 123°47'5 8.8
2018-Apr-11 07:51N 49°14' W 123°41'3 8.9
2018-Apr-11 07:29N 49°12' W 123°37'5 9.7
2018-Apr-11 06:58N 49°09' W 123°31'5 9.7
2018-Apr-11 06:30N 49°07' W 123°26'5 9.5
2018-Apr-11 06:00N 49°04' W 123°20'5 9.3
2018-Apr-11 05:30N 49°01' W 123°15'5 9.4
2018-Apr-11 04:59N 48°57' W 123°09'65 7.5
2018-Apr-10 20:23N 47°58' W 122°32'3 8.9
2018-Apr-10 20:00N 47°56' W 122°28'5 9.5
2018-Apr-10 19:30N 47°51' W 122°26'4 9.0
2018-Apr-10 19:00N 47°47' W 122°25'4 7.8
2018-Apr-10 18:30N 47°43' W 122°25'3 5.8
2018-Apr-10 18:00N 47°40' W 122°24'1 1.9
2018-Apr-10 17:30N 47°40' W 122°23'0 0.1
2018-Apr-10 17:00N 47°40' W 122°23'0 0.0
2018-Apr-10 16:30N 47°40' W 122°23'0 0.0
2018-Apr-10 15:59N 47°40' W 122°23'0 0.0
2018-Apr-10 15:30N 47°40' W 122°23'0 0.0
2018-Apr-10 15:00N 47°40' W 122°23'0 0.0
2018-Apr-10 14:30N 47°40' W 122°23'0 0.0
2018-Apr-10 14:00N 47°40' W 122°23'0 0.0
2018-Apr-10 13:30N 47°40' W 122°23'0 0.0
2018-Apr-10 13:00N 47°40' W 122°23'0 0.0
2018-Apr-10 12:30N 47°40' W 122°23'0 0.0
2018-Apr-10 12:00N 47°40' W 122°23'0 0.0
2018-Apr-10 11:30N 47°40' W 122°23'0 0.0
2018-Apr-10 11:00N 47°40' W 122°23'0 0.0
2018-Apr-10 10:30N 47°40' W 122°23'0 0.0
2018-Apr-10 10:00N 47°40' W 122°23'0 0.0
2018-Apr-10 09:30N 47°40' W 122°23'0 0.0
2018-Apr-10 09:00N 47°40' W 122°23'0 0.0
2018-Apr-10 08:30N 47°40' W 122°23'0 0.0
2018-Apr-10 08:00N 47°40' W 122°23'0 0.0
2018-Apr-10 07:29N 47°40' W 122°23'0 0.0
2018-Apr-10 07:00N 47°40' W 122°23'0 0.0
2018-Apr-10 06:30N 47°40' W 122°23'0 0.0
2018-Apr-10 06:00N 47°40' W 122°23'0 0.0
2018-Apr-10 05:30N 47°40' W 122°23'0 0.0
2018-Apr-10 05:00N 47°40' W 122°23'0 0.0
2018-Apr-10 04:30N 47°40' W 122°23'0 0.0
2018-Apr-10 04:00N 47°40' W 122°23'0 0.0
2018-Apr-10 03:30N 47°40' W 122°23'0 0.0
2018-Apr-10 03:00N 47°40' W 122°23'0 0.0
2018-Apr-10 02:30N 47°40' W 122°23'0 0.0
2018-Apr-10 02:00N 47°40' W 122°23'0 0.0
2018-Apr-10 01:30N 47°40' W 122°23'0 0.0
2018-Apr-10 01:00N 47°40' W 122°23'0 0.0
2018-Apr-10 00:30N 47°40' W 122°23'0 0.0
2018-Apr-10 00:00N 47°40' W 122°23'0 0.0
2018-Apr-09 23:30N 47°40' W 122°23'0 0.0
2018-Apr-09 23:00N 47°40' W 122°23'0 0.0
2018-Apr-09 22:30N 47°40' W 122°23'0 0.0
2018-Apr-09 22:00N 47°40' W 122°23'0 0.0
2018-Apr-09 21:30N 47°40' W 122°23'0 0.0
2018-Apr-09 20:59N 47°40' W 122°23'0 0.0
2018-Apr-09 20:30N 47°40' W 122°23'0 0.0
2018-Apr-09 20:00N 47°40' W 122°23'0 0.0
2018-Apr-09 19:30N 47°40' W 122°23'0 0.0
2018-Apr-09 19:00N 47°40' W 122°23'0 0.0
2018-Apr-09 18:30N 47°40' W 122°23'1 1.3
2018-Apr-09 18:00N 47°40' W 122°23'0 0.0
2018-Apr-09 17:30N 47°40' W 122°23'0 0.0
2018-Apr-09 17:00N 47°40' W 122°23'0 0.0
2018-Apr-09 16:30N 47°40' W 122°23'0 0.0
2018-Apr-09 16:00N 47°40' W 122°23'1 1.2
2018-Apr-09 15:30N 47°40' W 122°23'0 0.1
2018-Apr-09 15:00N 47°40' W 122°23'0 0.0
2018-Apr-09 14:30N 47°40' W 122°23'0 0.0
2018-Apr-09 13:59N 47°40' W 122°23'0 0.0
2018-Apr-09 13:30N 47°40' W 122°23'0 0.0
2018-Apr-09 13:00N 47°40' W 122°23'0 0.0
2018-Apr-09 12:30N 47°40' W 122°23'0 0.0
2018-Apr-09 12:00N 47°40' W 122°23'0 0.0
2018-Apr-09 11:30N 47°40' W 122°23'0 0.0
2018-Apr-09 11:00N 47°40' W 122°23'0 0.0
2018-Apr-09 10:30N 47°40' W 122°23'0 0.0
2018-Apr-09 10:00N 47°40' W 122°23'0 0.0
2018-Apr-09 09:30N 47°40' W 122°23'0 0.0
2018-Apr-09 09:00N 47°40' W 122°23'0 0.0
2018-Apr-09 08:30N 47°40' W 122°23'0 0.0
2018-Apr-09 08:00N 47°40' W 122°23'0 0.0
2018-Apr-09 07:30N 47°40' W 122°23'0 0.0
2018-Apr-09 06:59N 47°40' W 122°23'0 0.0
2018-Apr-09 06:30N 47°40' W 122°23'0 0.0
2018-Apr-09 06:00N 47°40' W 122°23'0 0.0
2018-Apr-09 05:30N 47°40' W 122°23'0 0.0
2018-Apr-09 05:00N 47°40' W 122°23'0 0.0
2018-Apr-09 04:30N 47°40' W 122°23'0 0.0
2018-Apr-09 04:00N 47°40' W 122°23'0 0.0
2018-Apr-09 03:30N 47°40' W 122°23'0 0.0
2018-Apr-09 03:00N 47°40' W 122°23'0 0.0
2018-Apr-09 02:30N 47°40' W 122°23'0 0.0
2018-Apr-09 02:00N 47°40' W 122°23'0 0.0
2018-Apr-09 01:30N 47°40' W 122°23'0 0.0
2018-Apr-09 01:00N 47°40' W 122°23'0 0.0
2018-Apr-09 00:30N 47°40' W 122°23'0 0.0
2018-Apr-09 00:00N 47°40' W 122°23'0 0.0
2018-Apr-08 23:30N 47°40' W 122°23'0 0.0
2018-Apr-08 23:00N 47°40' W 122°23'0 0.0
2018-Apr-08 22:30N 47°40' W 122°23'0 0.0
2018-Apr-08 22:00N 47°40' W 122°23'0 0.0
2018-Apr-08 21:30N 47°40' W 122°23'0 0.0
2018-Apr-08 21:00N 47°40' W 122°23'0 0.0
2018-Apr-08 20:30N 47°40' W 122°23'0 0.0
2018-Apr-08 20:00N 47°40' W 122°23'0 0.0
2018-Apr-08 19:30N 47°40' W 122°23'0 0.0
2018-Apr-08 19:00N 47°40' W 122°23'0 0.0
2018-Apr-08 18:30N 47°40' W 122°23'0 0.0
2018-Apr-08 18:00N 47°40' W 122°23'0 0.0
2018-Apr-08 17:30N 47°40' W 122°23'0 0.0
2018-Apr-08 17:00N 47°40' W 122°23'0 0.0
2018-Apr-08 16:30N 47°40' W 122°23'0 0.0
2018-Apr-08 16:00N 47°40' W 122°23'0 0.0
2018-Apr-08 15:30N 47°40' W 122°23'0 0.0
2018-Apr-08 15:00N 47°40' W 122°23'0 0.0
2018-Apr-08 14:30N 47°40' W 122°23'0 0.0
2018-Apr-08 14:00N 47°40' W 122°23'0 0.0
2018-Apr-08 13:30N 47°40' W 122°23'0 0.0
2018-Apr-08 13:00N 47°40' W 122°23'0 0.0
2018-Apr-08 12:30N 47°40' W 122°23'0 0.0
2018-Apr-08 12:00N 47°40' W 122°23'0 0.0
2018-Apr-08 11:30N 47°40' W 122°23'0 0.0
2018-Apr-08 11:00N 47°40' W 122°23'0 0.0
2018-Apr-08 10:30N 47°40' W 122°23'0 0.0
2018-Apr-08 10:00N 47°40' W 122°23'0 0.0
2018-Apr-08 09:30N 47°40' W 122°23'0 0.0
2018-Apr-08 09:00N 47°40' W 122°23'0 0.0
2018-Apr-08 08:30N 47°40' W 122°23'0 0.0
2018-Apr-08 07:59N 47°40' W 122°23'0 0.0
2018-Apr-08 07:30N 47°40' W 122°23'0 0.0
2018-Apr-08 06:56N 47°40' W 122°23'0 0.0
2018-Apr-08 06:30N 47°40' W 122°23'0 0.0
2018-Apr-08 06:00N 47°40' W 122°23'0 0.0
2018-Apr-08 05:30N 47°40' W 122°23'0 0.0
2018-Apr-08 05:00N 47°40' W 122°23'0 0.0
2018-Apr-08 04:30N 47°40' W 122°23'0 0.0
2018-Apr-08 04:00N 47°40' W 122°23'0 0.0
2018-Apr-08 03:30N 47°40' W 122°23'0 0.0
2018-Apr-08 03:00N 47°40' W 122°23'0 0.0
2018-Apr-08 02:30N 47°40' W 122°23'0 0.0
2018-Apr-08 02:00N 47°40' W 122°23'0 0.0
2018-Apr-08 01:30N 47°40' W 122°23'0 0.0
2018-Apr-08 01:00N 47°40' W 122°23'0 0.0
2018-Apr-08 00:30N 47°40' W 122°23'0 0.0
2018-Apr-08 00:00N 47°40' W 122°23'0 0.0
2018-Apr-07 23:30N 47°40' W 122°23'0 0.0
2018-Apr-07 23:00N 47°40' W 122°23'0 0.0
2018-Apr-07 22:30N 47°40' W 122°23'0 0.0
2018-Apr-07 22:00N 47°40' W 122°23'0 0.0
2018-Apr-07 21:30N 47°40' W 122°23'0 0.0
2018-Apr-07 21:00N 47°40' W 122°23'0 0.0
2018-Apr-07 20:30N 47°40' W 122°23'0 0.0
2018-Apr-07 20:00N 47°40' W 122°23'0 0.0
2018-Apr-07 19:30N 47°40' W 122°23'0 0.0
2018-Apr-07 19:00N 47°40' W 122°23'0 0.0
2018-Apr-07 18:30N 47°40' W 122°23'0 0.0
2018-Apr-07 18:00N 47°40' W 122°23'0 0.0
2018-Apr-07 17:30N 47°40' W 122°23'0 0.0
2018-Apr-07 17:00N 47°40' W 122°23'0 0.0
2018-Apr-07 16:30N 47°40' W 122°23'0 0.0
2018-Apr-07 15:59N 47°40' W 122°23'0 0.0
2018-Apr-07 15:30N 47°40' W 122°23'0 0.0
2018-Apr-07 15:00N 47°40' W 122°23'0 0.0
2018-Apr-07 14:30N 47°40' W 122°23'0 0.0
2018-Apr-07 14:00N 47°40' W 122°23'0 0.0
2018-Apr-07 13:30N 47°40' W 122°23'0 0.0
2018-Apr-07 13:00N 47°40' W 122°23'0 0.0
2018-Apr-07 12:30N 47°40' W 122°23'0 0.0
2018-Apr-07 12:00N 47°40' W 122°23'0 0.0
2018-Apr-07 11:30N 47°40' W 122°23'0 0.0
2018-Apr-07 11:00N 47°40' W 122°23'0 0.0
2018-Apr-07 10:30N 47°40' W 122°23'0 0.0
2018-Apr-07 10:00N 47°40' W 122°23'0 0.0
2018-Apr-07 09:30N 47°40' W 122°23'0 0.0
2018-Apr-07 09:00N 47°40' W 122°23'0 0.0
2018-Apr-07 08:30N 47°40' W 122°23'0 0.0
2018-Apr-07 08:00N 47°40' W 122°23'0 0.0
2018-Apr-07 07:30N 47°40' W 122°23'0 0.0
2018-Apr-07 07:00N 47°40' W 122°23'0 0.0
2018-Apr-07 06:30N 47°40' W 122°23'0 0.0
2018-Apr-07 06:00N 47°40' W 122°23'0 0.0
2018-Apr-07 05:30N 47°40' W 122°23'0 0.0
2018-Apr-07 05:00N 47°40' W 122°23'0 0.0
2018-Apr-07 04:30N 47°40' W 122°23'0 0.0
2018-Apr-07 04:00N 47°40' W 122°23'0 0.0
2018-Apr-07 03:30N 47°40' W 122°23'0 0.0
2018-Apr-07 03:00N 47°40' W 122°23'0 0.0
2018-Apr-07 02:30N 47°40' W 122°23'0 0.0
2018-Apr-07 02:00N 47°40' W 122°23'0 0.0
2018-Apr-07 01:30N 47°40' W 122°23'0 0.0
2018-Apr-07 01:00N 47°40' W 122°23'0 0.0
2018-Apr-07 00:30N 47°40' W 122°23'0 0.0
2018-Apr-07 00:00N 47°40' W 122°23'0 0.0
2018-Apr-06 23:30N 47°40' W 122°23'0 0.0
2018-Apr-06 23:00N 47°40' W 122°23'0 0.0
2018-Apr-06 22:30N 47°40' W 122°23'0 0.0
2018-Apr-06 22:00N 47°40' W 122°23'0 0.0
2018-Apr-06 21:30N 47°40' W 122°23'0 0.0
2018-Apr-06 21:00N 47°40' W 122°23'0 0.0
2018-Apr-06 20:30N 47°40' W 122°23'0 0.0
2018-Apr-06 20:00N 47°40' W 122°23'0 0.0
2018-Apr-06 19:30N 47°40' W 122°23'0 0.0
2018-Apr-06 19:00N 47°40' W 122°23'0 0.0
2018-Apr-06 18:30N 47°40' W 122°23'0 0.0
2018-Apr-06 18:00N 47°40' W 122°23'0 0.0
2018-Apr-06 17:30N 47°40' W 122°23'0 0.1
2018-Apr-06 17:00N 47°40' W 122°23'0 0.5
2018-Apr-06 16:30N 47°40' W 122°22'0 0.6
2018-Apr-06 16:00N 47°39' W 122°22'0 0.0
2018-Apr-06 15:30N 47°39' W 122°22'0 0.0
2018-Apr-06 15:00N 47°39' W 122°22'0 0.0
2018-Apr-06 14:30N 47°39' W 122°22'0 0.0
2018-Apr-06 14:00N 47°39' W 122°22'0 0.0
2018-Apr-06 13:30N 47°39' W 122°22'0 0.0
2018-Apr-06 13:00N 47°39' W 122°22'0 0.0
2018-Apr-06 12:30N 47°39' W 122°22'0 0.0
2018-Apr-06 12:00N 47°39' W 122°22'0 0.0
2018-Apr-06 11:30N 47°39' W 122°22'0 0.0
2018-Apr-06 11:00N 47°39' W 122°22'0 0.0
2018-Apr-06 10:30N 47°39' W 122°22'0 0.0
2018-Apr-06 10:00N 47°39' W 122°22'0 0.0
2018-Apr-06 09:30N 47°39' W 122°22'0 0.0
2018-Apr-06 09:00N 47°39' W 122°22'0 0.0
2018-Apr-06 08:30N 47°39' W 122°22'0 0.0
2018-Apr-06 08:00N 47°39' W 122°22'0 0.0
2018-Apr-06 07:30N 47°39' W 122°22'0 0.0
2018-Apr-06 07:00N 47°39' W 122°22'0 0.0
2018-Apr-06 06:30N 47°39' W 122°22'0 0.0
2018-Apr-06 06:00N 47°39' W 122°22'0 0.0
2018-Apr-06 05:30N 47°39' W 122°22'0 0.0
2018-Apr-06 05:00N 47°39' W 122°22'0 0.0
2018-Apr-06 04:30N 47°39' W 122°22'0 0.0
2018-Apr-06 04:00N 47°39' W 122°22'0 0.0
2018-Apr-06 03:30N 47°39' W 122°22'0 0.0
2018-Apr-06 03:00N 47°39' W 122°22'0 0.0
2018-Apr-06 02:30N 47°39' W 122°22'0 0.0
2018-Apr-06 02:00N 47°39' W 122°22'0 0.0
2018-Apr-06 01:30N 47°39' W 122°22'0 0.0
2018-Apr-06 01:00N 47°39' W 122°22'0 0.0
2018-Apr-06 00:30N 47°39' W 122°22'0 0.0
2018-Apr-06 00:00N 47°39' W 122°22'0 0.0
2018-Apr-05 23:30N 47°39' W 122°22'0 0.0
2018-Apr-05 23:00N 47°39' W 122°22'0 0.0
2018-Apr-05 22:30N 47°39' W 122°22'0 0.0
2018-Apr-05 22:00N 47°39' W 122°22'0 0.0
2018-Apr-05 21:30N 47°39' W 122°22'0 0.0
2018-Apr-05 21:00N 47°39' W 122°22'0 0.0
2018-Apr-05 20:30N 47°39' W 122°22'0 0.0
2018-Apr-05 20:00N 47°39' W 122°22'0 0.0
2018-Apr-05 19:30N 47°39' W 122°22'0 0.0
2018-Apr-05 19:00N 47°39' W 122°22'0 0.0
2018-Apr-05 18:30N 47°39' W 122°22'0 0.0
2018-Apr-05 18:00N 47°39' W 122°22'0 0.0
2018-Apr-05 17:30N 47°39' W 122°22'0 0.0
2018-Apr-05 17:00N 47°39' W 122°22'0 0.0
2018-Apr-05 16:30N 47°39' W 122°22'0 0.0
2018-Apr-05 16:00N 47°39' W 122°22'0 0.0
2018-Apr-05 15:30N 47°39' W 122°22'0 0.0
2018-Apr-05 15:00N 47°39' W 122°22'0 0.0
2018-Apr-05 14:30N 47°39' W 122°22'0 0.0
2018-Apr-05 14:00N 47°39' W 122°22'0 0.0
2018-Apr-05 13:30N 47°39' W 122°22'0 0.0
2018-Apr-05 13:00N 47°39' W 122°22'0 0.0
2018-Apr-05 12:30N 47°39' W 122°22'0 0.0
2018-Apr-05 12:00N 47°39' W 122°22'0 0.0
2018-Apr-05 11:30N 47°39' W 122°22'0 0.0
2018-Apr-05 11:00N 47°39' W 122°22'0 0.0
2018-Apr-05 10:30N 47°39' W 122°22'0 0.0
2018-Apr-05 10:00N 47°39' W 122°22'0 0.0
2018-Apr-05 09:30N 47°39' W 122°22'0 0.0
2018-Apr-05 09:00N 47°39' W 122°22'0 0.0
2018-Apr-05 08:30N 47°39' W 122°22'0 0.0
2018-Apr-05 08:00N 47°39' W 122°22'0 0.0
2018-Apr-05 07:29N 47°39' W 122°22'0 0.0
2018-Apr-05 07:00N 47°39' W 122°22'0 0.0
2018-Apr-05 06:30N 47°39' W 122°22'0 0.0
2018-Apr-05 06:00N 47°39' W 122°22'0 0.0
2018-Apr-05 05:30N 47°39' W 122°22'0 0.0
2018-Apr-05 05:00N 47°39' W 122°22'0 0.0
2018-Apr-05 04:30N 47°39' W 122°22'0 0.0
2018-Apr-05 04:00N 47°39' W 122°22'0 0.0
2018-Apr-05 03:30N 47°39' W 122°22'0 0.0
2018-Apr-05 03:00N 47°39' W 122°22'0 0.0
2018-Apr-05 02:30N 47°39' W 122°22'0 0.0
2018-Apr-05 02:00N 47°39' W 122°22'0 0.0
2018-Apr-05 01:30N 47°39' W 122°22'0 0.0
2018-Apr-05 01:00N 47°39' W 122°22'0 0.0
2018-Apr-05 00:29N 47°39' W 122°22'0 0.0
2018-Apr-05 00:00N 47°39' W 122°22'  

Dump ship's entire track history